This is the latest recevied weather packets stored in our database for station/object K9TLD. If no packets are shown the sender has not sent any weather packets the latest 10 day(s).
| Time | Temp. | Humidity | Pressure | Rain* | Wind** | Luminosity | Snow |
|---|---|---|---|---|---|---|---|
| 1787424182 | 18.33° C | 98% | 1016 hPa | 0 mm | - | 789 W/m² | - |
| 1787423877 | 17.78° C | 97% | 1016 hPa | 0 mm | - | 89 W/m² | - |
| 1787423574 | 17.78° C | 96% | 1015.9 hPa | 3.05 mm | - | 82 W/m² | - |
| 1787423264 | 17.22° C | 96% | 1015.6 hPa | 1.78 mm | - | 101 W/m² | - |
| 1787422960 | 16.67° C | 94% | 1015.6 hPa | 0 mm | - | 180 W/m² | - |
| 1787422656 | 16.67° C | 93% | 1015.7 hPa | 4.32 mm | - | 186 W/m² | - |
| 1787422352 | 16.67° C | 87% | 1016 hPa | 33.53 mm | - | 148 W/m² | - |
| 1787422047 | 17.78° C | 87% | 1016.3 hPa | 27.69 mm | - | 48 W/m² | - |
| 1787421743 | 21.11° C | 77% | 1016.1 hPa | 4.83 mm | - | 29 W/m² | - |
| 1787421438 | 25° C | 63% | 1015.8 hPa | 0 mm | - | 43 W/m² | - |
| 1787421133 | 25.56° C | 62% | 1015.6 hPa | 0 mm | - | 64 W/m² | - |
| 1787420829 | 26.67° C | 60% | 1015.6 hPa | 0 mm | - | 150 W/m² | - |
| 1787420525 | 26.11° C | 65% | 1015.4 hPa | 0 mm | - | 905 W/m² | - |
| 1787420220 | 24.44° C | 65% | 1015.2 hPa | 0 mm | - | 874 W/m² | - |
| 1787419917 | 24.44° C | 66% | 1015.4 hPa | 0 mm | - | 183 W/m² | - |
| 1787419613 | 24.44° C | 66% | 1015.7 hPa | 0 mm | - | 206 W/m² | - |
| 1787419312 | 25.56° C | 63% | 1015.6 hPa | 0 mm | - | 108 W/m² | - |
| 1787419009 | 25.56° C | 63% | 1015.7 hPa | 0 mm | - | 232 W/m² | - |
| 1787418703 | 25° C | 63% | 1015.6 hPa | 0 mm | - | 830 W/m² | - |
| 1787418400 | 24.44° C | 64% | 1015.7 hPa | 0 mm | - | 288 W/m² | - |
| 1787418096 | 24.44° C | 63% | 1015.5 hPa | 0 mm | - | 260 W/m² | - |
| 1787417791 | 25° C | 66% | 1015.7 hPa | 0 mm | - | 249 W/m² | - |
| 1787417486 | 24.44° C | 64% | 1015.4 hPa | 0 mm | - | 429 W/m² | - |
| 1787417181 | 25° C | 62% | 1015.6 hPa | 0 mm | - | 283 W/m² | - |
| 1787416877 | 25° C | 62% | 1015.4 hPa | 0 mm | - | 283 W/m² | - |
* Rain latest hour (hover to see other rain measurements)
** Current wind speed in m/s (hover to see current wind gust speed)